createdAt,value
2023-01-08T00:01:24.337Z,101349.06
2023-01-08T00:03:54.618Z,101352.59
2023-01-08T00:06:25.483Z,101363.84
2023-01-08T00:08:56.197Z,101371.03
2023-01-08T00:11:26.614Z,101372.94
2023-01-08T00:13:56.867Z,101383.63
2023-01-08T00:18:56.034Z,101383.59
2023-01-08T00:21:27.021Z,101389.97
2023-01-08T00:23:58.165Z,101396.50
2023-01-08T00:26:28.430Z,101390.19
2023-01-08T00:28:58.791Z,101386.09
2023-01-08T00:31:29.092Z,101398.72
2023-01-08T00:33:59.129Z,101398.44
2023-01-08T00:36:29.329Z,101407.50
2023-01-08T00:39:03.063Z,101403.91
2023-01-08T00:41:33.172Z,101407.78
2023-01-08T00:44:03.235Z,101403.91
2023-01-08T00:46:33.241Z,101414.91
2023-01-08T00:49:03.393Z,101420.66
2023-01-08T00:51:33.489Z,101427.78
2023-01-08T00:54:03.531Z,101434.09
2023-01-08T00:56:33.632Z,101433.53
2023-01-08T00:59:03.617Z,101442.03
2023-01-08T01:01:33.883Z,101437.34
2023-01-08T01:04:04.073Z,101443.66
2023-01-08T01:06:34.313Z,101450.28
2023-01-08T01:09:04.524Z,101452.22
2023-01-08T01:11:35.116Z,101455.78
2023-01-08T01:14:05.357Z,101457.41
2023-01-08T01:16:36.394Z,101454.66
2023-01-08T01:19:06.997Z,101465.66
2023-01-08T01:21:37.693Z,101467.59
2023-01-08T01:24:09.158Z,101476.41
2023-01-08T01:26:38.969Z,101472.53
2023-01-08T01:29:09.444Z,101480.50
2023-01-08T01:31:39.626Z,101479.66
2023-01-08T01:34:09.785Z,101480.19
2023-01-08T01:36:40.241Z,101484.06
2023-01-08T01:39:10.622Z,101475.78
2023-01-08T01:41:46.789Z,101479.94
2023-01-08T01:44:55.358Z,101480.19
2023-01-08T01:47:40.744Z,101481.84
2023-01-08T01:50:30.433Z,101477.97
2023-01-08T01:53:09.555Z,101477.44
2023-01-08T01:55:43.558Z,101483.47
2023-01-08T01:58:18.042Z,101483.22
2023-01-08T02:00:49.260Z,101478.81
2023-01-08T02:03:23.225Z,101485.97
2023-01-08T02:05:56.002Z,101491.47
2023-01-08T02:08:56.459Z,101484.03
2023-01-08T02:11:35.321Z,101481.28
2023-01-08T02:14:27.405Z,101480.97
2023-01-08T02:17:07.999Z,101493.34
2023-01-08T02:19:46.507Z,101490.06
2023-01-08T02:22:38.645Z,101496.38
2023-01-08T02:25:43.617Z,101495.56
2023-01-08T02:28:16.736Z,101492.81
2023-01-08T02:30:47.809Z,101501.88
2023-01-08T02:33:18.232Z,101498.31
2023-01-08T02:36:12.824Z,101503.25
2023-01-08T02:38:51.772Z,101492.81
2023-01-08T02:41:27.742Z,101503.25
2023-01-08T02:44:01.694Z,101501.31
2023-01-08T02:46:36.693Z,101498.00
2023-01-08T02:49:12.536Z,101496.09
2023-01-08T02:51:54.782Z,101493.91
2023-01-08T02:54:30.659Z,101487.00
2023-01-08T02:57:08.271Z,101493.06
2023-01-08T02:59:40.887Z,101499.41
2023-01-08T03:02:12.468Z,101493.63
2023-01-08T03:04:51.424Z,101495.81
2023-01-08T03:07:22.010Z,101502.16
2023-01-08T03:09:52.903Z,101495.28
2023-01-08T03:12:53.394Z,101488.13
2023-01-08T03:15:40.331Z,101498.28
2023-01-08T03:18:18.148Z,101498.03
2023-01-08T03:20:51.202Z,101494.69
2023-01-08T03:23:24.761Z,101498.03
2023-01-08T03:25:55.035Z,101499.97
2023-01-08T03:28:33.075Z,101501.00
2023-01-08T03:31:04.299Z,101491.13
2023-01-08T03:33:34.788Z,101492.75
2023-01-08T03:36:06.823Z,101489.47
2023-01-08T03:38:42.960Z,101496.63
2023-01-08T03:41:17.798Z,101486.44
2023-01-08T03:43:48.095Z,101489.19
2023-01-08T03:46:24.424Z,101487.25
2023-01-08T03:48:55.357Z,101480.94
2023-01-08T03:51:25.702Z,101475.44
2023-01-08T03:54:01.333Z,101481.75
2023-01-08T03:56:31.456Z,101479.53
2023-01-08T03:59:01.450Z,101475.44
2023-01-08T04:01:31.535Z,101481.50
2023-01-08T04:04:01.870Z,101472.41
2023-01-08T04:06:33.195Z,101466.91
2023-01-08T04:09:03.055Z,101458.38
2023-01-08T04:11:33.057Z,101455.91
2023-01-08T04:14:03.346Z,101458.38
2023-01-08T04:16:33.836Z,101460.03
2023-01-08T04:19:04.416Z,101455.03
2023-01-08T04:21:34.613Z,101449.81
2023-01-08T04:24:04.910Z,101449.81
2023-01-08T04:26:35.584Z,101445.97
2023-01-08T04:29:06.859Z,101434.97
2023-01-08T04:31:37.040Z,101435.78
2023-01-08T04:34:07.283Z,101436.06
2023-01-08T04:36:37.458Z,101434.97
2023-01-08T04:39:08.024Z,101432.50
2023-01-08T04:41:38.149Z,101427.81
2023-01-08T04:44:08.343Z,101426.41
2023-01-08T04:46:38.743Z,101420.09
2023-01-08T04:49:09.007Z,101424.50
2023-01-08T04:51:39.247Z,101413.19
2023-01-08T04:54:09.320Z,101416.78
2023-01-08T04:56:39.660Z,101408.53
2023-01-08T04:59:09.957Z,101410.16
2023-01-08T05:01:40.231Z,101395.88
2023-01-08T05:04:10.720Z,101398.31
2023-01-08T05:06:40.996Z,101397.00
2023-01-08T05:09:11.287Z,101386.53
2023-01-08T05:11:41.744Z,101383.47
2023-01-08T05:14:12.632Z,101384.88
2023-01-08T05:16:42.881Z,101383.22
2023-01-08T05:19:13.171Z,101370.81
2023-01-08T05:21:43.571Z,101375.50
2023-01-08T05:24:13.819Z,101370.00
2023-01-08T05:26:43.989Z,101364.50
2023-01-08T05:29:14.170Z,101359.53
2023-01-08T05:31:44.367Z,101361.44
2023-01-08T05:34:14.675Z,101348.53
2023-01-08T05:36:45.575Z,101350.97
2023-01-08T05:39:15.876Z,101351.28
2023-01-08T05:41:46.062Z,101344.41
2023-01-08T05:44:16.179Z,101334.78
2023-01-08T05:46:46.380Z,101341.91
2023-01-08T05:49:16.986Z,101328.13
2023-01-08T05:51:47.313Z,101320.72
2023-01-08T05:54:17.499Z,101315.22
2023-01-08T05:56:47.621Z,101316.03
2023-01-08T05:59:17.829Z,101308.88
2023-01-08T06:01:47.906Z,101304.22
2023-01-08T06:04:18.381Z,101299.53
2023-01-08T06:06:48.595Z,101287.41
2023-01-08T06:09:18.910Z,101287.94
2023-01-08T06:11:49.391Z,101282.16
2023-01-08T06:14:20.096Z,101276.94
2023-01-08T06:16:50.463Z,101269.50
2023-01-08T06:19:21.264Z,101265.13
2023-01-08T06:21:51.578Z,101256.56
2023-01-08T06:24:21.673Z,101253.81
2023-01-08T06:26:51.619Z,101251.91
2023-01-08T06:29:21.761Z,101252.69
2023-01-08T06:31:51.846Z,101248.31
2023-01-08T06:34:21.893Z,101244.13
2023-01-08T06:36:53.491Z,101238.13
2023-01-08T06:39:23.672Z,101237.84
2023-01-08T06:41:54.256Z,101234.28
2023-01-08T06:44:25.319Z,101227.63
2023-01-08T06:46:55.437Z,101224.06
2023-01-08T06:49:26.383Z,101213.06
2023-01-08T06:51:56.510Z,101209.50
2023-01-08T06:54:26.526Z,101195.44
2023-01-08T06:56:56.768Z,101198.19
2023-01-08T06:59:27.049Z,101193.50
2023-01-08T07:01:57.391Z,101191.59
2023-01-08T07:04:27.803Z,101188.84
2023-01-08T07:06:58.296Z,101194.34
2023-01-08T07:09:28.426Z,101176.72
2023-01-08T07:11:58.462Z,101175.88
2023-01-08T07:14:28.597Z,101177.00
2023-01-08T07:16:59.087Z,101177.53
2023-01-08T07:19:29.323Z,101169.28
2023-01-08T07:21:59.744Z,101162.66
2023-01-08T07:24:30.048Z,101159.09
2023-01-08T07:27:00.189Z,101155.75
2023-01-08T07:29:30.317Z,101157.97
2023-01-08T07:32:00.374Z,101162.06
2023-01-08T07:34:30.453Z,101156.88
2023-01-08T07:37:00.487Z,101154.13
2023-01-08T07:39:30.728Z,101162.06
2023-01-08T07:42:00.964Z,101151.66
2023-01-08T07:44:31.161Z,101149.41
2023-01-08T07:47:01.429Z,101149.72
2023-01-08T07:49:31.621Z,101151.66
2023-01-08T07:52:01.835Z,101146.97
2023-01-08T07:54:32.031Z,101150.31
2023-01-08T07:57:02.113Z,101140.13
2023-01-08T07:59:32.126Z,101142.06
2023-01-08T08:02:02.382Z,101148.38
2023-01-08T08:04:32.631Z,101139.31
2023-01-08T08:07:02.816Z,101139.00
2023-01-08T08:09:33.063Z,101146.66
2023-01-08T08:12:03.341Z,101135.66
2023-01-08T08:14:33.546Z,101142.81
2023-01-08T08:17:04.020Z,101137.00
2023-01-08T08:19:36.915Z,101142.50
2023-01-08T08:22:06.947Z,101137.00
2023-01-08T08:24:36.804Z,101125.41
2023-01-08T08:27:06.978Z,101126.22
2023-01-08T08:29:38.397Z,101125.41
2023-01-08T08:32:08.469Z,101125.13
2023-01-08T08:34:38.327Z,101125.41
2023-01-08T08:37:08.477Z,101125.13
2023-01-08T08:39:39.278Z,101130.31
2023-01-08T08:42:09.530Z,101126.22
2023-01-08T08:44:40.756Z,101129.50
2023-01-08T08:47:13.126Z,101121.53
2023-01-08T08:49:43.272Z,101120.72
2023-01-08T08:52:13.157Z,101120.72
2023-01-08T08:54:43.798Z,101121.84
2023-01-08T08:57:14.422Z,101119.09
2023-01-08T08:59:45.936Z,101122.66
2023-01-08T09:02:16.107Z,101116.34
2023-01-08T09:04:46.439Z,101120.72
2023-01-08T09:07:16.413Z,101111.63
2023-01-08T09:09:46.429Z,101115.22
2023-01-08T09:12:16.302Z,101114.38
2023-01-08T09:14:46.479Z,101124.28
2023-01-08T09:17:16.457Z,101121.53
2023-01-08T09:19:46.317Z,101130.91
2023-01-08T09:22:16.227Z,101119.91
2023-01-08T09:24:46.042Z,101119.09
2023-01-08T09:27:16.567Z,101122.66
2023-01-08T09:29:46.638Z,101125.41
2023-01-08T09:32:16.683Z,101127.03
2023-01-08T09:34:46.509Z,101126.50
2023-01-08T09:37:16.393Z,101125.72
2023-01-08T09:39:51.313Z,101126.50
2023-01-08T09:42:28.447Z,101129.25
2023-01-08T09:45:01.157Z,101125.41
2023-01-08T09:47:45.870Z,101130.91
2023-01-08T09:50:17.721Z,101128.66
2023-01-08T09:52:48.338Z,101137.53
2023-01-08T09:55:19.518Z,101138.56
2023-01-08T09:57:50.469Z,101141.91
2023-01-08T10:00:24.702Z,101137.81
2023-01-08T10:02:57.122Z,101143.03
2023-01-08T10:05:29.781Z,101142.75
2023-01-08T10:08:00.147Z,101147.94
2023-01-08T10:10:34.922Z,101149.25
2023-01-08T10:13:05.720Z,101155.06
2023-01-08T10:15:36.099Z,101147.13
2023-01-08T10:18:13.629Z,101154.56
2023-01-08T10:20:43.847Z,101158.94
2023-01-08T10:23:19.561Z,101171.28
2023-01-08T10:26:02.203Z,101163.34
2023-01-08T10:28:37.288Z,101164.44
2023-01-08T10:31:17.490Z,101170.47
2023-01-08T10:33:51.125Z,101182.81
2023-01-08T10:36:26.264Z,101173.44
2023-01-08T10:39:03.032Z,101177.03
2023-01-08T10:41:33.652Z,101182.53
2023-01-08T10:44:06.774Z,101183.34
2023-01-08T10:46:46.035Z,101186.94
2023-01-08T10:49:23.782Z,101188.31
2023-01-08T10:51:55.939Z,101191.31
2023-01-08T10:54:46.085Z,101196.81
2023-01-08T10:57:29.813Z,101195.19
2023-01-08T11:00:01.455Z,101207.84
2023-01-08T11:02:31.535Z,101202.81
2023-01-08T11:05:02.354Z,101210.06
2023-01-08T11:07:34.659Z,101219.97
2023-01-08T11:10:07.010Z,101219.13
2023-01-08T11:12:37.881Z,101224.63
2023-01-08T11:15:19.980Z,101225.75
2023-01-08T11:17:50.094Z,101228.22
2023-01-08T11:20:33.017Z,101226.25
2023-01-08T11:23:36.951Z,101230.13
2023-01-08T11:26:15.690Z,101234.31
2023-01-08T11:28:49.281Z,101234.53
2023-01-08T11:31:34.006Z,101241.13
2023-01-08T11:34:32.969Z,101242.25
2023-01-08T11:37:33.224Z,101248.59
2023-01-08T11:40:03.362Z,101243.09
2023-01-08T11:42:50.394Z,101251.63
2023-01-08T11:45:29.569Z,101249.97
2023-01-08T11:48:24.762Z,101248.06
2023-01-08T11:51:01.081Z,101256.84
2023-01-08T11:54:08.302Z,101257.97
2023-01-08T11:56:50.501Z,101275.28
2023-01-08T11:59:49.780Z,101273.94
2023-01-08T12:02:33.917Z,101278.34
2023-01-08T12:05:34.701Z,101280.25
2023-01-08T12:08:42.228Z,101290.97
2023-01-08T12:11:33.751Z,101293.22
2023-01-08T12:14:48.810Z,101295.38
2023-01-08T12:17:28.486Z,101306.38
2023-01-08T12:20:21.469Z,101316.56
2023-01-08T12:23:13.750Z,101317.09
2023-01-08T12:26:04.124Z,101314.63
2023-01-08T12:28:39.913Z,101306.06
2023-01-08T12:31:48.671Z,101312.69
2023-01-08T12:34:33.393Z,101325.03
2023-01-08T12:37:16.843Z,101317.94
2023-01-08T12:39:54.719Z,101326.47
2023-01-08T12:42:28.195Z,101326.47
2023-01-08T12:45:02.447Z,101330.53
2023-01-08T12:47:37.682Z,101334.44
2023-01-08T12:50:28.334Z,101338.31
2023-01-08T12:53:02.592Z,101343.81
2023-01-08T12:55:49.137Z,101352.63
2023-01-08T12:58:28.369Z,101352.34
2023-01-08T13:01:19.815Z,101359.47
2023-01-08T13:03:50.328Z,101351.22
2023-01-08T13:06:24.805Z,101354.81
2023-01-08T13:09:01.512Z,101361.44
2023-01-08T13:11:35.518Z,101350.94
2023-01-08T13:14:16.127Z,101360.31
2023-01-08T13:16:48.988Z,101368.03
2023-01-08T13:19:30.259Z,101371.59
2023-01-08T13:22:02.344Z,101372.19
2023-01-08T13:24:40.640Z,101371.06
2023-01-08T13:27:19.927Z,101388.41
2023-01-08T13:29:52.638Z,101387.34
2023-01-08T13:32:49.345Z,101382.91
2023-01-08T13:35:19.335Z,101383.19
2023-01-08T13:38:22.286Z,101399.44
2023-01-08T13:40:58.446Z,101389.31
2023-01-08T13:44:00.686Z,101402.75
2023-01-08T13:46:31.728Z,101409.69
2023-01-08T13:49:09.370Z,101405.50
2023-01-08T13:51:48.886Z,101402.75
2023-01-08T13:54:40.766Z,101417.31
2023-01-08T13:57:15.660Z,101425.09
2023-01-08T13:59:57.747Z,101423.13
2023-01-08T14:02:29.829Z,101418.97
2023-01-08T14:05:02.552Z,101418.97
2023-01-08T14:07:32.968Z,101423.38
2023-01-08T14:10:12.225Z,101428.34
2023-01-08T14:12:42.779Z,101435.47
2023-01-08T14:15:39.182Z,101425.31
2023-01-08T14:18:09.428Z,101426.94
2023-01-08T14:20:42.607Z,101430.25
2023-01-08T14:23:38.891Z,101431.88
2023-01-08T14:26:13.455Z,101426.94
2023-01-08T14:28:54.969Z,101420.88
2023-01-08T14:31:28.749Z,101431.28
2023-01-08T14:34:01.777Z,101430.25
2023-01-08T14:36:32.287Z,101434.03
2023-01-08T14:39:02.446Z,101438.50
2023-01-08T14:42:00.159Z,101440.66
2023-01-08T14:44:38.076Z,101435.97
2023-01-08T14:47:20.895Z,101440.41
2023-01-08T14:49:56.285Z,101438.78
2023-01-08T14:52:26.680Z,101438.19
2023-01-08T14:55:02.103Z,101438.19
2023-01-08T14:57:32.520Z,101435.75
2023-01-08T15:00:04.398Z,101435.75
2023-01-08T15:02:39.056Z,101436.00
2023-01-08T15:05:18.709Z,101429.41
2023-01-08T15:08:04.266Z,101421.44
2023-01-08T15:10:37.075Z,101432.16
2023-01-08T15:13:10.604Z,101423.91
2023-01-08T15:15:58.779Z,101426.66
2023-01-08T15:18:29.245Z,101418.41
2023-01-08T15:20:59.927Z,101425.31
2023-01-08T15:25:30.358Z,101425.50
2023-01-08T15:28:06.247Z,101432.38
2023-01-08T15:30:40.540Z,101435.13
2023-01-08T15:33:36.843Z,101441.47
2023-01-08T15:36:08.447Z,101435.97
2023-01-08T15:38:38.525Z,101436.28
2023-01-08T15:41:08.516Z,101434.91
2023-01-08T15:43:39.458Z,101428.88
2023-01-08T15:46:14.111Z,101432.16
2023-01-08T15:48:44.111Z,101423.66
2023-01-08T15:51:14.291Z,101423.09
2023-01-08T15:53:44.095Z,101422.56
2023-01-08T15:56:14.185Z,101416.75
2023-01-08T15:58:44.074Z,101424.72
2023-01-08T16:01:14.163Z,101420.63
2023-01-08T16:03:44.149Z,101421.16
2023-01-08T16:06:14.080Z,101421.44
2023-01-08T16:08:48.082Z,101415.38
2023-01-08T16:11:20.700Z,101417.59
2023-01-08T16:13:50.715Z,101414.84
2023-01-08T16:16:20.672Z,101412.88
2023-01-08T16:18:51.125Z,101409.34
2023-01-08T16:21:21.193Z,101414.84
2023-01-08T16:23:51.088Z,101414.84
2023-01-08T16:26:21.217Z,101412.66
2023-01-08T16:28:51.347Z,101406.03
2023-01-08T16:31:21.268Z,101415.94
2023-01-08T16:33:51.291Z,101410.72
2023-01-08T16:36:21.381Z,101408.25
2023-01-08T16:38:51.642Z,101408.56
2023-01-08T16:41:21.778Z,101416.53
2023-01-08T16:43:52.962Z,101407.47
2023-01-08T16:46:23.112Z,101411.31
2023-01-08T16:48:53.525Z,101413.22
2023-01-08T16:51:24.612Z,101411.00
2023-01-08T16:53:55.467Z,101413.78
2023-01-08T16:56:25.685Z,101412.97
2023-01-08T16:58:55.999Z,101412.97
2023-01-08T17:01:26.266Z,101415.72
2023-01-08T17:03:58.356Z,101404.97
2023-01-08T17:06:29.852Z,101406.94
2023-01-08T17:09:03.260Z,101401.69
2023-01-08T17:11:34.541Z,101403.63
2023-01-08T17:14:04.660Z,101405.56
2023-01-08T17:16:35.210Z,101396.75
2023-01-08T17:19:05.644Z,101402.81
2023-01-08T17:21:36.208Z,101404.44
2023-01-08T17:24:07.354Z,101402.81
2023-01-08T17:26:37.598Z,101404.44
2023-01-08T17:29:07.730Z,101398.94
2023-01-08T17:31:42.444Z,101400.06
2023-01-08T17:34:16.596Z,101406.66
2023-01-08T17:36:46.704Z,101402.53
2023-01-08T17:39:16.691Z,101401.41
2023-01-08T17:42:05.159Z,101392.09
2023-01-08T17:44:36.450Z,101390.47
2023-01-08T17:47:06.604Z,101386.06
2023-01-08T17:49:37.047Z,101388.81
2023-01-08T17:52:07.167Z,101386.06
2023-01-08T17:54:37.273Z,101381.41
2023-01-08T17:57:07.331Z,101378.09
2023-01-08T17:59:37.185Z,101386.63
2023-01-08T18:02:07.308Z,101378.69
2023-01-08T18:04:38.230Z,101374.00
2023-01-08T18:07:08.294Z,101373.72
2023-01-08T18:09:39.268Z,101377.00
2023-01-08T18:12:11.092Z,101370.97
2023-01-08T18:14:41.981Z,101361.06
2023-01-08T18:17:12.026Z,101369.31
2023-01-08T18:19:41.948Z,101369.31
2023-01-08T18:22:12.163Z,101364.63
2023-01-08T18:24:42.155Z,101370.13
2023-01-08T18:27:12.174Z,101351.69
2023-01-08T18:29:42.059Z,101354.47
2023-01-08T18:32:11.971Z,101347.31
2023-01-08T18:34:42.671Z,101354.19
2023-01-08T18:37:12.703Z,101348.13
2023-01-08T18:39:42.577Z,101346.78
2023-01-08T18:42:28.075Z,101345.13
2023-01-08T18:44:59.616Z,101335.78
2023-01-08T18:47:31.061Z,101336.88
2023-01-08T18:50:05.925Z,101332.50
2023-01-08T18:52:36.489Z,101333.59
2023-01-08T18:55:06.739Z,101324.22
2023-01-08T18:57:36.839Z,101328.94
2023-01-08T19:00:07.489Z,101327.28
2023-01-08T19:02:37.641Z,101316.56
2023-01-08T19:05:08.161Z,101325.34
2023-01-08T19:07:39.559Z,101322.59
2023-01-08T19:10:09.821Z,101321.78
2023-01-08T19:12:41.243Z,101315.44
2023-01-08T19:15:11.137Z,101319.31
2023-01-08T19:17:42.659Z,101314.34
2023-01-08T19:20:13.420Z,101312.69
2023-01-08T19:22:43.477Z,101300.94
2023-01-08T19:25:13.354Z,101304.75
2023-01-08T19:27:43.608Z,101301.16
2023-01-08T19:30:14.414Z,101298.41
2023-01-08T19:32:48.215Z,101296.53
2023-01-08T19:35:18.302Z,101290.75
2023-01-08T19:37:48.184Z,101292.38
2023-01-08T19:40:18.162Z,101289.94
2023-01-08T19:43:06.522Z,101283.63
2023-01-08T19:45:39.823Z,101277.81
2023-01-08T19:48:10.229Z,101276.41
2023-01-08T19:50:41.358Z,101279.47
2023-01-08T19:53:14.532Z,101273.66
2023-01-08T19:55:44.679Z,101271.19
2023-01-08T19:58:15.130Z,101277.50
2023-01-08T20:00:45.077Z,101275.59
2023-01-08T20:03:15.298Z,101272.00
2023-01-08T20:05:45.437Z,101272.31
2023-01-08T20:08:15.360Z,101269.88
2023-01-08T20:10:46.963Z,101260.78
2023-01-08T20:13:17.182Z,101256.13
2023-01-08T20:15:47.743Z,101259.66
2023-01-08T20:18:17.922Z,101258.88
2023-01-08T20:20:50.845Z,101256.59
2023-01-08T20:23:22.593Z,101258.56
2023-01-08T20:25:52.794Z,101257.22
2023-01-08T20:28:25.348Z,101248.66
2023-01-08T20:30:55.410Z,101250.63
2023-01-08T20:33:25.401Z,101256.13
2023-01-08T20:35:56.560Z,101250.63
2023-01-08T20:38:26.751Z,101256.91
2023-01-08T20:40:56.744Z,101243.47
2023-01-08T20:43:26.764Z,101251.72
2023-01-08T20:45:56.736Z,101253.09
2023-01-08T20:48:28.461Z,101249.25
2023-01-08T20:51:02.730Z,101250.88
2023-01-08T20:53:34.287Z,101246.50
2023-01-08T20:56:10.904Z,101246.50
2023-01-08T20:58:43.495Z,101250.97
2023-01-08T21:01:19.852Z,101254.53
2023-01-08T21:03:52.306Z,101250.34
2023-01-08T21:06:25.188Z,101242.41
2023-01-08T21:08:58.015Z,101249.56
2023-01-08T21:11:29.547Z,101249.56
2023-01-08T21:14:00.673Z,101247.91
2023-01-08T21:16:32.822Z,101244.03
2023-01-08T21:19:03.629Z,101245.97
2023-01-08T21:21:39.053Z,101250.34
2023-01-08T21:24:11.872Z,101245.97
2023-01-08T21:26:42.592Z,101250.13
2023-01-08T21:29:13.387Z,101248.50
2023-01-08T21:31:43.667Z,101254.81
2023-01-08T21:34:14.003Z,101250.97
2023-01-08T21:36:44.493Z,101255.09
2023-01-08T21:39:14.679Z,101253.72
2023-01-08T21:42:02.831Z,101257.28
2023-01-08T21:44:51.378Z,101254.56
2023-01-08T21:47:22.763Z,101253.19
2023-01-08T21:49:53.075Z,101258.38
2023-01-08T21:52:41.521Z,101262.53
2023-01-08T21:55:12.058Z,101259.50
2023-01-08T21:57:42.775Z,101264.19
2023-01-08T22:00:14.967Z,101258.69
2023-01-08T22:02:45.541Z,101260.03
2023-01-08T22:05:15.639Z,101264.41
2023-01-08T22:07:45.581Z,101267.75
2023-01-08T22:10:15.580Z,101272.44
2023-01-08T22:12:45.518Z,101275.72
2023-01-08T22:15:16.186Z,101271.31
2023-01-08T22:17:46.587Z,101271.59
2023-01-08T22:20:16.951Z,101273.25
2023-01-08T22:22:50.391Z,101285.31
2023-01-08T22:25:20.530Z,101279.28
2023-01-08T22:27:53.834Z,101283.13
2023-01-08T22:30:24.454Z,101280.91
2023-01-08T22:32:54.511Z,101286.41
2023-01-08T22:35:24.454Z,101292.72
2023-01-08T22:37:54.786Z,101288.63
2023-01-08T22:40:24.647Z,101294.66
2023-01-08T22:42:55.038Z,101296.88
2023-01-08T22:45:26.553Z,101299.09
2023-01-08T22:50:22.051Z,101300.47
2023-01-08T22:52:52.074Z,101310.88
2023-01-08T22:55:22.074Z,101321.28
2023-01-08T22:57:54.339Z,101309.00
2023-01-08T23:00:24.504Z,101309.34
2023-01-08T23:02:54.659Z,101317.28
2023-01-08T23:05:24.748Z,101328.88
2023-01-08T23:07:54.701Z,101323.94
2023-01-08T23:10:24.674Z,101328.34
2023-01-08T23:12:55.114Z,101333.88
2023-01-08T23:15:26.174Z,101335.50
2023-01-08T23:17:56.417Z,101337.97
2023-01-08T23:20:27.537Z,101336.28
2023-01-08T23:22:57.575Z,101351.16
2023-01-08T23:25:31.157Z,101348.97
2023-01-08T23:28:01.266Z,101349.81
2023-01-08T23:30:33.681Z,101351.97
2023-01-08T23:33:03.886Z,101359.13
2023-01-08T23:35:33.887Z,101354.72
2023-01-08T23:38:03.803Z,101361.34
2023-01-08T23:40:33.878Z,101354.72
2023-01-08T23:43:03.822Z,101371.22
2023-01-08T23:45:34.224Z,101368.22
2023-01-08T23:48:04.305Z,101369.59
2023-01-08T23:50:34.347Z,101377.84
2023-01-08T23:53:04.567Z,101387.72
2023-01-08T23:55:35.417Z,101383.63
2023-01-08T23:58:05.520Z,101388.53
